Time;durP1;ratioP1;P1;durP2;ratioP2;P2;SDS_P1;SDS_P2;PMS_P1;PMS_P2;Temp;Humidity;BMP_temperature;BMP_pressure;BME280_temperature;BME280_humidity;BME280_pressure;Samples;Min_cycle;Max_cycle;Signal;HPM_P1;HPM_P2
2022/05/10 00:00:17;;;;;;;7.13;3.63;;;;;;;7.42;68.66;93977.31;5093964;28;20169;-45
2022/05/10 00:02:46;;;;;;;5.30;3.30;;;;;;;7.42;68.55;93960.84;5093544;28;20024;-45
2022/05/10 00:05:11;;;;;;;5.07;4.10;;;;;;;7.55;68.82;93969.19;5093381;28;20055;-48
2022/05/10 00:07:37;;;;;;;9.57;5.68;;;;;;;7.47;68.94;93951.81;5093549;28;20408;-44
2022/05/10 00:10:06;;;;;;;9.73;5.82;;;;;;;7.36;69.90;93969.13;5093689;28;20417;-47
2022/05/10 00:12:32;;;;;;;;;;;;;;;7.28;70.03;93968.22;5093944;28;20020;-45
2022/05/10 00:14:57;;;;;;;4.68;3.58;;;;;;;7.09;70.52;93961.91;5075307;28;19908;-45
2022/05/10 00:17:25;;;;;;;5.10;3.33;;;;;;;6.97;71.07;93966.03;5093265;28;20020;-45
2022/05/10 00:19:51;;;;;;;6.25;3.45;;;;;;;6.94;71.15;93964.28;5093626;28;20036;-45
2022/05/10 00:22:17;;;;;;;3.72;2.78;;;;;;;7.09;71.11;93966.66;5093199;28;20031;-44
2022/05/10 00:24:42;;;;;;;3.92;2.83;;;;;;;7.02;71.21;93956.97;5092988;28;20032;-45
2022/05/10 00:27:08;;;;;;;4.53;2.90;;;;;;;7.08;71.44;93954.91;5093171;28;20024;-45
2022/05/10 00:29:33;;;;;;;3.83;2.78;;;;;;;6.94;71.64;93956.06;5093388;28;20028;-46
2022/05/10 00:31:59;;;;;;;5.97;2.67;;;;;;;7.09;71.05;93953.69;5093418;28;20016;-45
2022/05/10 00:34:28;;;;;;;3.20;2.50;;;;;;;6.94;70.63;93958.81;5093340;28;20028;-45
2022/05/10 00:36:54;;;;;;;3.63;2.67;;;;;;;6.78;69.96;93949.47;5093288;28;20398;-48
2022/05/10 00:39:19;;;;;;;4.28;3.30;;;;;;;6.73;70.19;93946.78;5074362;28;20027;-46
2022/05/10 00:42:02;;;;;;;5.88;3.00;;;;;;;6.94;69.92;93945.09;5093213;28;20020;-46
2022/05/10 00:44:42;;;;;;;7.55;2.80;;;;;;;6.88;70.20;93952.63;5092930;28;20704;-48
2022/05/10 00:47:40;;;;;;;2.72;2.47;;;;;;;6.92;70.11;93953.09;5092702;28;20032;-44
2022/05/10 00:50:14;;;;;;;6.15;3.22;;;;;;;6.79;70.54;93950.97;5092868;28;20027;-45
2022/05/10 00:52:54;;;;;;;7.35;3.22;;;;;;;6.94;70.66;93953.31;5074704;28;20035;-46
2022/05/10 00:55:30;;;;;;;4.68;2.92;;;;;;;6.83;70.34;93943.19;5074597;28;20020;-45
2022/05/10 00:58:02;;;;;;;4.85;3.10;;;;;;;6.91;70.14;93945.38;5074872;28;20032;-45
2022/05/10 01:00:29;;;;;;;3.35;2.60;;;;;;;6.73;70.51;93944.78;5074829;28;20034;-46
2022/05/10 01:03:00;;;;;;;3.60;2.60;;;;;;;6.58;70.52;93946.41;5092151;28;20114;-45
2022/05/10 01:05:52;;;;;;;3.35;2.10;;;;;;;6.69;70.18;93943.56;5092264;28;20432;-45
2022/05/10 01:08:29;;;;;;;2.90;2.60;;;;;;;6.77;69.82;93942.50;5074674;28;20028;-48
2022/05/10 01:10:59;;;;;;;3.63;2.72;;;;;;;6.71;70.04;93927.34;5074299;28;20559;-45
2022/05/10 01:13:42;;;;;;;4.15;2.60;;;;;;;6.78;70.58;93943.97;5092546;28;20024;-45
2022/05/10 01:16:14;;;;;;;4.00;3.08;;;;;;;6.45;71.82;93943.50;5092225;28;20034;-45
2022/05/10 01:18:41;;;;;;;3.10;2.47;;;;;;;6.48;71.14;93935.00;5092171;28;20089;-46
2022/05/10 01:21:21;;;;;;;3.55;2.90;;;;;;;6.40;71.66;93942.28;5091975;28;20031;-47
2022/05/10 01:24:17;;;;;;;3.95;3.03;;;;;;;6.47;71.42;93935.50;5092352;28;20494;-45
2022/05/10 01:27:37;;;;;;;3.88;2.45;;;;;;;6.26;72.08;93934.41;5091953;28;20489;-44
2022/05/10 01:30:20;;;;;;;3.25;2.40;;;;;;;6.34;70.94;93932.63;5052049;28;20040;-46
2022/05/10 01:35:48;;;;;;;7.65;4.32;;;;;;;6.35;70.78;93934.84;5092135;28;20038;-46
2022/05/10 01:38:32;;;;;;;9.52;4.15;;;;;;;6.44;70.18;93925.53;5073767;28;20028;-44
2022/05/10 01:41:24;;;;;;;5.70;3.67;;;;;;;6.32;70.13;93929.63;5092057;28;20036;-46
2022/05/10 01:43:58;;;;;;;6.32;3.60;;;;;;;6.17;70.29;93931.97;5074015;28;20036;-47
2022/05/10 01:46:25;;;;;;;7.13;4.15;;;;;;;6.27;69.76;93925.69;5091807;28;20024;-48
2022/05/10 01:48:54;;;;;;;8.13;4.97;;;;;;;6.29;70.18;93917.69;5073704;28;20385;-47
2022/05/10 01:52:00;;;;;;;6.50;4.85;;;;;;;6.35;69.73;93920.38;5091848;28;20028;-47
2022/05/10 01:54:41;;;;;;;12.65;6.47;;;;;;;6.31;69.63;93917.91;5077066;28;20093;-46
2022/05/10 01:57:12;;;;;;;10.05;6.15;;;;;;;6.27;69.92;93913.97;5091400;28;20575;-48
2022/05/10 01:59:38;;;;;;;10.10;6.18;;;;;;;6.26;70.05;93913.22;5091702;28;20031;-47
2022/05/10 02:02:05;;;;;;;9.55;4.97;;;;;;;6.22;69.93;93912.00;5073181;28;20027;-46
2022/05/10 02:04:35;;;;;;;9.43;5.45;;;;;;;6.18;70.80;93908.78;5072597;28;20686;-47
2022/05/10 02:07:20;;;;;;;13.50;5.90;;;;;;;6.19;70.17;93908.28;5072297;28;20028;-46
2022/05/10 02:09:58;;;;;;;7.63;5.43;;;;;;;5.92;69.92;93918.19;5090603;28;20036;-46
2022/05/10 02:12:38;;;;;;;9.07;5.07;;;;;;;5.82;70.45;93913.47;5091050;28;20034;-46
2022/05/10 02:15:08;;;;;;;9.20;5.53;;;;;;;5.70;71.46;93907.31;5091058;28;20073;-47
2022/05/10 02:17:43;;;;;;;10.00;5.40;;;;;;;5.76;71.28;93907.28;5073058;28;20043;-47
2022/05/10 02:20:28;;;;;;;7.78;4.90;;;;;;;5.79;71.16;93906.25;5091378;28;20028;-46
2022/05/10 02:22:54;;;;;;;10.70;5.38;;;;;;;5.64;71.45;93900.34;5090977;28;20028;-49
2022/05/10 02:25:27;;;;;;;5.32;3.72;;;;;;;5.43;71.76;93908.19;5072701;28;20054;-47
2022/05/10 02:27:59;;;;;;;5.43;3.03;;;;;;;5.49;71.86;93906.16;5072827;28;20512;-47
2022/05/10 02:30:28;;;;;;;6.43;2.97;;;;;;;5.43;71.30;93875.31;5073293;28;20165;-48
2022/05/10 02:33:07;;;;;;;4.85;2.67;;;;;;;5.52;71.23;93899.69;5073109;28;20417;-47
2022/05/10 02:35:40;;;;;;;2.92;2.63;;;;;;;5.58;71.37;93903.13;5074048;28;20028;-48
2022/05/10 02:38:06;;;;;;;4.18;3.17;;;;;;;5.51;72.42;93894.69;5091014;28;20077;-47
2022/05/10 02:40:32;;;;;;;5.07;3.03;;;;;;;5.45;72.29;93889.25;5072899;28;20032;-47
2022/05/10 02:42:58;;;;;;;5.32;3.60;;;;;;;5.54;71.16;93896.44;5090657;28;20546;-48
2022/05/10 02:45:24;;;;;;;7.65;4.28;;;;;;;5.50;71.36;93899.41;5090543;28;20145;-47
2022/05/10 02:47:50;;;;;;;17.95;9.05;;;;;;;5.56;71.44;93893.94;5090516;28;20073;-47
2022/05/10 02:50:25;;;;;;;30.00;9.55;;;;;;;5.58;72.14;93891.44;5090847;28;20024;-47
2022/05/10 02:52:51;;;;;;;10.43;6.90;;;;;;;5.59;72.10;93898.41;5090721;28;20028;-49
2022/05/10 02:55:33;;;;;;;6.78;5.15;;;;;;;5.50;72.09;93898.69;5090754;28;20060;-46
2022/05/10 02:58:02;;;;;;;6.55;3.45;;;;;;;5.13;72.61;93890.88;5072790;28;20036;-47
2022/05/10 03:00:27;;;;;;;7.65;3.00;;;;;;;5.18;72.89;93899.06;5072490;28;20063;-46
2022/05/10 03:02:56;;;;;;;4.53;2.90;;;;;;;5.29;72.37;93901.00;5089556;28;20105;-45
2022/05/10 03:05:22;;;;;;;4.13;2.80;;;;;;;5.47;71.99;93896.97;5072098;28;20044;-46
2022/05/10 03:07:47;;;;;;;9.23;3.65;;;;;;;5.33;70.35;93891.28;5090298;28;20039;-47
2022/05/10 03:10:13;;;;;;;11.20;3.40;;;;;;;5.47;69.87;93905.94;5090230;28;20063;-46
2022/05/10 03:12:38;;;;;;;6.65;3.42;;;;;;;5.31;71.62;93906.72;5090559;28;20181;-46
2022/05/10 03:15:05;;;;;;;5.95;3.75;;;;;;;5.28;70.98;93905.00;5090163;28;20024;-46
2022/05/10 03:17:31;;;;;;;7.68;4.13;;;;;;;5.05;71.07;93907.06;5090479;28;20043;-47
2022/05/10 03:19:56;;;;;;;7.22;4.28;;;;;;;4.99;71.25;93911.81;5090499;28;20125;-46
2022/05/10 03:22:22;;;;;;;8.30;4.30;;;;;;;5.23;70.64;93911.25;5090407;28;20444;-46
2022/05/10 03:24:47;;;;;;;8.35;5.05;;;;;;;5.40;70.79;93898.22;5090451;28;20508;-46
2022/05/10 03:27:13;;;;;;;14.88;6.38;;;;;;;5.55;70.71;93909.63;5089999;28;20401;-45
2022/05/10 03:29:39;;;;;;;11.73;6.40;;;;;;;5.38;71.27;93903.47;5072182;28;20116;-46
2022/05/10 03:32:06;;;;;;;12.00;4.85;;;;;;;5.34;70.86;93905.72;5090012;28;20622;-47
2022/05/10 03:37:16;;;;;;;9.13;4.75;;;;;;;5.22;71.86;93907.00;5090416;28;20467;-46
2022/05/10 03:39:41;;;;;;;9.20;5.30;;;;;;;4.69;72.57;93885.50;5089985;28;20032;-45
2022/05/10 03:42:07;;;;;;;6.18;4.65;;;;;;;5.06;72.91;93903.09;5090415;28;20040;-47
2022/05/10 03:44:33;;;;;;;8.68;5.13;;;;;;;5.22;72.60;93909.72;5089943;28;20032;-46
2022/05/10 03:46:58;;;;;;;9.55;4.93;;;;;;;5.11;72.39;93916.00;5089854;28;20024;-47
2022/05/10 03:49:24;;;;;;;11.40;5.57;;;;;;;4.97;72.48;93919.03;5090177;28;20107;-45
2022/05/10 03:51:49;;;;;;;8.93;5.20;;;;;;;5.08;72.20;93922.50;5089924;28;20024;-47
2022/05/10 03:54:15;;;;;;;9.68;5.82;;;;;;;5.11;72.72;93918.72;5090101;28;20024;-46
2022/05/10 03:56:40;;;;;;;16.05;7.47;;;;;;;5.14;72.76;93928.69;5089840;28;20386;-46
2022/05/10 03:59:06;;;;;;;11.02;6.35;;;;;;;4.97;73.81;93927.22;5090105;28;20024;-46
2022/05/10 04:01:31;;;;;;;19.85;9.77;;;;;;;5.27;73.57;93922.66;5090051;28;20032;-45
2022/05/10 04:03:57;;;;;;;13.95;9.98;;;;;;;5.38;73.29;93926.13;5089478;28;20513;-46
2022/05/10 04:06:22;;;;;;;15.55;9.35;;;;;;;5.64;72.06;93922.28;5089638;28;20081;-47
2022/05/10 04:08:48;;;;;;;17.45;9.98;;;;;;;5.51;72.44;93927.56;5089826;28;20023;-46
2022/05/10 04:11:14;;;;;;;12.20;7.63;;;;;;;5.72;72.37;93928.69;5089544;28;20039;-46
2022/05/10 04:13:40;;;;;;;23.40;12.93;;;;;;;5.74;71.85;93926.22;5090015;28;20101;-47
2022/05/10 04:16:06;;;;;;;26.60;14.43;;;;;;;5.84;71.95;93924.69;5092936;28;20028;-47
2022/05/10 04:18:32;;;;;;;36.67;16.27;;;;;;;6.30;71.65;93932.16;5093639;28;20035;-46
2022/05/10 04:20:58;;;;;;;28.15;15.18;;;;;;;7.08;69.82;93932.22;5093583;28;20685;-46
2022/05/10 04:23:23;;;;;;;22.02;13.70;;;;;;;7.68;66.64;93933.56;5093488;28;20563;-47
2022/05/10 04:25:49;;;;;;;17.38;11.05;;;;;;;8.15;65.79;93926.44;5093123;28;20020;-46
2022/05/10 04:28:14;;;;;;;19.77;12.10;;;;;;;8.65;63.74;93920.22;5093426;28;20028;-48
2022/05/10 04:30:40;;;;;;;17.02;9.50;;;;;;;9.15;62.56;93931.13;5093388;28;20027;-47
2022/05/10 04:33:05;;;;;;;16.70;9.35;;;;;;;9.47;60.82;93927.53;5093340;28;20409;-46
2022/05/10 04:35:31;;;;;;;17.10;10.98;;;;;;;9.58;61.26;93925.31;5092966;28;20108;-47
2022/05/10 04:38:00;;;;;;;16.10;11.00;;;;;;;9.72;61.42;93923.31;5093239;28;20028;-47
2022/05/10 04:43:10;;;;;;;20.15;11.95;;;;;;;9.83;61.84;93904.50;5093256;28;20126;-49
2022/05/10 04:45:35;;;;;;;15.55;10.77;;;;;;;10.36;61.32;93910.66;5092896;28;20107;-46
2022/05/10 04:48:01;;;;;;;12.18;8.77;;;;;;;11.17;59.02;93918.75;5093004;28;20031;-45
2022/05/10 04:50:26;;;;;;;38.63;10.82;;;;;;;11.63;57.21;93923.31;5093031;28;20081;-46
2022/05/10 04:52:52;;;;;;;23.70;9.00;;;;;;;11.69;56.93;93929.47;5092934;28;20101;-46
2022/05/10 04:55:20;;;;;;;25.38;7.28;;;;;;;11.78;57.60;93931.72;5092901;28;20093;-47
2022/05/10 04:57:45;;;;;;;76.10;12.57;;;;;;;11.84;57.16;93931.59;5092576;28;20030;-47
2022/05/10 05:00:13;;;;;;;47.10;8.20;;;;;;;12.17;56.75;93934.13;5092487;28;20028;-46
2022/05/10 05:02:39;;;;;;;18.20;7.25;;;;;;;12.34;56.13;93925.34;5092485;28;20024;-45
2022/05/10 05:05:05;;;;;;;11.95;7.50;;;;;;;12.58;56.10;93922.06;5092120;28;20529;-47
2022/05/10 05:07:30;;;;;;;12.88;6.82;;;;;;;12.47;55.34;93925.22;5092664;28;20066;-46
2022/05/10 05:09:56;;;;;;;8.25;5.63;;;;;;;12.68;55.11;93922.28;5092357;28;20074;-46
2022/05/10 05:12:22;;;;;;;6.90;5.03;;;;;;;12.99;55.25;93915.50;5092580;28;20031;-47
2022/05/10 05:14:48;;;;;;;9.65;6.13;;;;;;;13.06;54.31;93908.53;5092255;28;20028;-47
2022/05/10 05:17:13;;;;;;;8.73;5.80;;;;;;;13.31;54.45;93912.19;5092209;28;20043;-46
2022/05/10 05:19:39;;;;;;;16.38;5.78;;;;;;;13.69;54.07;93916.41;5092513;28;20073;-46
2022/05/10 05:22:05;;;;;;;78.75;8.55;;;;;;;14.45;51.89;93913.41;5092015;28;20115;-46
2022/05/10 05:24:31;;;;;;;22.77;5.53;;;;;;;15.31;50.76;93914.50;5092012;28;20024;-48
2022/05/10 05:26:57;;;;;;;7.18;4.50;;;;;;;16.25;48.25;93915.28;5091934;28;20030;-46
2022/05/10 05:29:23;;;;;;;7.97;4.68;;;;;;;16.79;45.86;93916.13;5091921;28;20032;-45
2022/05/10 05:31:50;;;;;;;9.77;4.72;;;;;;;17.66;44.49;93915.94;5092284;28;20035;-46
2022/05/10 05:34:15;;;;;;;5.90;3.58;;;;;;;18.49;41.77;93905.28;5073927;28;20466;-47
2022/05/10 05:36:41;;;;;;;4.85;3.40;;;;;;;19.13;40.79;93906.31;5091782;28;20032;-45
2022/05/10 05:39:06;;;;;;;5.90;3.17;;;;;;;19.47;40.24;93908.72;5092042;28;20085;-45
2022/05/10 05:41:32;;;;;;;8.38;4.45;;;;;;;19.35;40.14;93905.84;5091703;28;20484;-46
2022/05/10 05:43:57;;;;;;;12.10;3.25;;;;;;;19.43;40.16;93906.38;5091649;28;20035;-46
2022/05/10 05:46:22;;;;;;;6.43;3.13;;;;;;;19.86;40.33;93900.88;5091579;28;20024;-46
2022/05/10 05:48:48;;;;;;;5.03;3.00;;;;;;;20.19;38.33;93896.78;5091590;28;20032;-46
2022/05/10 05:51:13;;;;;;;8.27;3.00;;;;;;;20.69;36.98;93904.97;5091830;28;20024;-45
2022/05/10 05:53:39;;;;;;;2.53;1.70;;;;;;;20.48;36.28;93907.81;5091507;28;20101;-47
2022/05/10 05:56:11;;;;;;;3.15;1.80;;;;;;;19.98;37.21;93901.66;5091704;28;20099;-46
2022/05/10 05:58:38;;;;;;;6.63;2.45;;;;;;;19.82;38.77;93909.72;5091731;28;20027;-46
2022/05/10 06:01:11;;;;;;;5.05;2.80;;;;;;;19.49;39.02;93904.00;5091238;28;20546;-46
2022/05/10 06:03:36;;;;;;;10.88;3.05;;;;;;;19.27;40.58;93905.25;5091003;28;20024;-45
2022/05/10 06:06:02;;;;;;;3.40;2.25;;;;;;;18.92;40.03;93904.94;5090909;28;20043;-46
2022/05/10 06:08:27;;;;;;;10.25;2.53;;;;;;;18.91;41.23;93905.50;5091255;28;20036;-45
2022/05/10 06:10:54;;;;;;;3.45;2.00;;;;;;;19.06;40.05;93907.97;5091157;28;20035;-48
2022/05/10 06:13:21;;;;;;;6.28;2.47;;;;;;;18.67;39.17;93907.31;5091426;28;20168;-46
2022/05/10 06:15:47;;;;;;;3.28;2.40;;;;;;;18.48;40.67;93907.34;5091116;28;20055;-46
2022/05/10 06:18:14;;;;;;;20.00;3.88;;;;;;;18.24;42.16;93904.81;5091300;28;20056;-47
2022/05/10 06:20:39;;;;;;;5.15;2.65;;;;;;;17.98;43.82;93907.16;5091373;28;20024;-45
2022/05/10 06:23:05;;;;;;;6.50;2.83;;;;;;;17.86;44.32;93906.28;5091182;28;20562;-46
2022/05/10 06:25:30;;;;;;;4.50;2.25;;;;;;;18.26;42.05;93897.31;5091164;28;20405;-45
2022/05/10 06:27:56;;;;;;;5.85;2.40;;;;;;;18.64;40.97;93877.75;5091201;28;20031;-47
2022/05/10 06:30:22;;;;;;;22.17;2.95;;;;;;;19.30;40.22;93900.50;5091112;28;20024;-46
2022/05/10 06:32:48;;;;;;;5.32;2.20;;;;;;;19.79;40.21;93896.91;5090883;28;20169;-47
2022/05/10 06:35:15;;;;;;;3.85;1.63;;;;;;;20.11;39.63;93887.13;5090957;28;20028;-45
2022/05/10 06:40:24;;;;;;;7.35;1.90;;;;;;;21.24;36.76;93895.13;5091058;28;20116;-46
2022/05/10 06:42:50;;;;;;;8.95;1.63;;;;;;;21.48;33.70;93899.41;5090625;28;20074;-47
2022/05/10 06:45:18;;;;;;;2.22;1.33;;;;;;;22.20;32.47;93891.06;5090785;28;20020;-45
2022/05/10 06:47:46;;;;;;;7.15;1.60;;;;;;;22.51;32.09;93897.06;5090803;28;20042;-47
2022/05/10 06:50:14;;;;;;;5.87;4.23;;;;;;;22.50;34.00;93887.16;5090852;28;20051;-46
2022/05/10 06:52:40;;;;;;;3.85;1.70;;;;;;;22.80;32.62;93891.72;5090550;28;20035;-46
2022/05/10 06:55:06;;;;;;;1.95;1.40;;;;;;;23.19;33.12;93886.84;5090686;28;20034;-45
2022/05/10 06:57:32;;;;;;;2.90;1.50;;;;;;;23.54;32.67;93897.88;5090682;28;20062;-47
2022/05/10 06:59:57;;;;;;;3.05;1.40;;;;;;;24.03;30.47;93893.41;5090369;28;20090;-45
2022/05/10 07:02:24;;;;;;;5.97;2.92;;;;;;;24.78;30.19;93888.72;5089970;28;20039;-45
2022/05/10 07:04:50;;;;;;;3.90;3.13;;;;;;;25.37;28.63;93898.59;5090395;28;20449;-46
2022/05/10 07:07:16;;;;;;;2.92;1.80;;;;;;;25.81;27.70;93891.44;5090165;28;20024;-46
2022/05/10 07:09:43;;;;;;;2.25;1.25;;;;;;;26.58;26.81;93891.91;5090598;28;20480;-46
2022/05/10 07:12:09;;;;;;;3.28;1.40;;;;;;;27.40;25.23;93877.53;5090595;28;20028;-45
2022/05/10 07:14:34;;;;;;;2.97;1.40;;;;;;;28.22;24.88;93891.25;5090488;28;20478;-47
2022/05/10 07:16:59;;;;;;;3.20;1.15;;;;;;;28.89;23.55;93889.31;5090269;28;20034;-47
2022/05/10 07:19:25;;;;;;;2.60;1.33;;;;;;;29.95;22.44;93882.69;5090405;28;20028;-46
2022/05/10 07:21:50;;;;;;;1.60;0.90;;;;;;;30.73;20.68;93884.13;5090230;28;20540;-46
2022/05/10 07:24:19;;;;;;;6.38;1.10;;;;;;;30.98;19.72;93880.50;5090210;28;20032;-48
2022/05/10 07:26:48;;;;;;;3.28;1.00;;;;;;;31.68;19.37;93887.16;5090401;28;20403;-46
2022/05/10 07:29:14;;;;;;;2.40;1.05;;;;;;;32.34;19.49;93882.13;5090110;28;20110;-47
2022/05/10 07:31:40;;;;;;;1.65;0.93;;;;;;;33.17;18.73;93878.66;5090433;28;20056;-49
2022/05/10 07:34:05;;;;;;;3.00;1.20;;;;;;;33.56;18.52;93875.00;5090386;28;20059;-46
2022/05/10 07:36:34;;;;;;;2.22;1.00;;;;;;;34.19;17.81;93879.47;5090351;28;20503;-48
2022/05/10 07:39:00;;;;;;;;;;;;;;;34.53;16.09;93864.09;5090901;28;20030;-46
2022/05/10 07:41:26;;;;;;;6.55;1.05;;;;;;;34.20;15.73;93878.03;5090299;28;20300;-45
2022/05/10 07:43:51;;;;;;;1.50;1.00;;;;;;;33.73;16.66;93870.22;5090019;28;20028;-47
2022/05/10 07:46:17;;;;;;;2.25;0.88;;;;;;;33.79;15.90;93876.03;5090164;28;20032;-46
2022/05/10 07:48:44;;;;;;;2.55;0.95;;;;;;;34.24;16.27;93871.63;5091461;28;20134;-46
2022/05/10 07:51:09;;;;;;;1.05;0.90;;;;;;;34.69;16.00;93876.47;5093931;28;20553;-46
2022/05/10 07:53:36;;;;;;;2.65;1.50;;;;;;;35.41;15.42;93876.41;5093783;28;20028;-46
2022/05/10 07:56:02;;;;;;;2.65;1.10;;;;;;;34.90;16.19;93872.38;5093784;28;20028;-47
2022/05/10 07:58:28;;;;;;;1.23;0.93;;;;;;;34.76;15.21;93863.59;5093889;28;20039;-47
2022/05/10 08:00:54;;;;;;;11.43;1.65;;;;;;;35.56;15.17;93877.97;5093906;28;20051;-46
2022/05/10 08:03:21;;;;;;;2.35;1.27;;;;;;;35.67;15.60;93873.03;5093300;28;20107;-47
2022/05/10 08:05:47;;;;;;;2.13;1.40;;;;;;;35.77;15.07;93867.34;5093248;28;20091;-47
2022/05/10 08:08:13;;;;;;;3.25;0.95;;;;;;;35.79;14.77;93861.59;5093604;28;20064;-47
2022/05/10 08:10:42;;;;;;;4.18;1.27;;;;;;;35.62;15.16;93862.94;5093540;28;20028;-47
2022/05/10 08:13:27;;;;;;;4.03;1.20;;;;;;;35.69;15.58;93856.50;5093412;28;20531;-47
2022/05/10 08:15:56;;;;;;;2.47;0.98;;;;;;;35.12;14.96;93860.38;5093739;28;20073;-46
2022/05/10 08:18:22;;;;;;;1.85;1.27;;;;;;;34.85;15.37;93861.53;5093619;28;20111;-46
2022/05/10 08:20:50;;;;;;;1.25;1.13;;;;;;;34.48;16.11;93856.84;5093590;28;20500;-47
2022/05/10 08:23:24;;;;;;;5.78;1.40;;;;;;;32.82;16.79;93856.56;5093539;28;20020;-47
2022/05/10 08:25:51;;;;;;;2.28;1.52;;;;;;;31.82;16.83;93850.34;5093175;28;20485;-46
2022/05/10 08:28:16;;;;;;;2.15;1.73;;;;;;;29.62;19.05;93849.69;5093119;28;20070;-46
2022/05/10 08:30:44;;;;;;;1.80;1.70;;;;;;;28.37;20.50;93850.59;5093408;28;20028;-49
2022/05/10 08:33:10;;;;;;;3.63;2.00;;;;;;;27.39;22.02;93847.75;5093162;28;20084;-47
2022/05/10 08:35:39;;;;;;;1.75;1.45;;;;;;;28.06;23.99;93854.50;5092981;28;20016;-48
2022/05/10 08:38:04;;;;;;;4.63;1.50;;;;;;;29.54;21.38;93852.25;5092978;28;20493;-47
2022/05/10 08:40:33;;;;;;;4.57;1.75;;;;;;;30.44;18.39;93850.56;5093244;28;20024;-45
2022/05/10 08:43:02;;;;;;;2.38;1.13;;;;;;;30.57;20.03;93855.91;5075095;28;20031;-48
2022/05/10 08:45:29;;;;;;;6.15;1.60;;;;;;;30.34;20.01;93853.16;5075057;28;20031;-47
2022/05/10 08:47:54;;;;;;;2.90;1.52;;;;;;;30.14;20.50;93849.72;5092712;28;20042;-48
2022/05/10 08:50:21;;;;;;;2.10;1.40;;;;;;;30.32;20.92;93848.13;5093035;28;20027;-45
2022/05/10 08:52:48;;;;;;;2.55;1.30;;;;;;;29.17;20.76;93853.28;5092971;28;20032;-47
2022/05/10 08:55:21;;;;;;;2.75;1.48;;;;;;;28.30;20.90;93851.78;5092780;28;20020;-48
2022/05/10 08:58:01;;;;;;;2.15;1.40;;;;;;;27.91;22.20;93858.19;5075618;28;20052;-46
2022/05/10 09:00:28;;;;;;;2.22;1.52;;;;;;;27.30;23.15;93851.63;5073748;28;20031;-46
2022/05/10 09:02:56;;;;;;;1.80;1.35;;;;;;;26.41;24.87;93855.81;5092237;28;20032;-47
2022/05/10 09:05:26;;;;;;;5.05;2.20;;;;;;;25.85;24.43;93854.09;5092399;28;20063;-46
2022/05/10 09:08:13;;;;;;;4.90;2.45;;;;;;;25.53;25.49;93854.09;5074358;28;20040;-47
2022/05/10 09:10:45;;;;;;;23.38;11.70;;;;;;;25.27;25.92;93861.41;5092386;28;20508;-47
2022/05/10 09:13:15;;;;;;;17.30;11.07;;;;;;;24.84;26.23;93858.66;5092590;28;20054;-46
2022/05/10 09:15:46;;;;;;;24.75;11.45;;;;;;;24.61;26.81;93853.28;5092986;28;20486;-47
2022/05/10 09:18:22;;;;;;;7.07;3.78;;;;;;;25.18;28.42;93856.72;5074977;28;20404;-45
2022/05/10 09:21:02;;;;;;;15.27;2.28;;;;;;;25.39;25.78;93855.56;5092475;28;20055;-46
2022/05/10 09:24:05;;;;;;;1.83;1.73;;;;;;;24.90;26.75;93855.41;5092461;28;20028;-47
2022/05/10 09:26:39;;;;;;;8.82;4.13;;;;;;;24.32;28.31;93850.44;5092023;28;20023;-45
2022/05/10 09:29:23;;;;;;;27.35;5.03;;;;;;;24.22;28.06;93844.28;5091957;28;20688;-46
2022/05/10 09:34:48;;;;;;;111.97;7.88;;;;;;;23.67;29.64;93842.88;5092302;28;20085;-47
2022/05/10 09:37:30;;;;;;;19.60;4.80;;;;;;;23.52;28.35;93846.31;5091819;28;20023;-47
2022/05/10 09:39:56;;;;;;;2.42;2.10;;;;;;;23.59;29.01;93853.72;5073765;28;20057;-47
2022/05/10 09:42:35;;;;;;;11.30;3.00;;;;;;;23.59;29.67;93851.63;5091727;28;20115;-46
2022/05/10 09:45:03;;;;;;;33.97;2.80;;;;;;;23.22;30.05;93848.22;5091977;28;20467;-46
2022/05/10 09:47:30;;;;;;;7.90;2.17;;;;;;;23.22;30.35;93839.75;5091517;28;20512;-47
2022/05/10 09:50:14;;;;;;;1.95;1.60;;;;;;;23.24;29.55;93842.69;5091553;28;20027;-46
2022/05/10 09:52:40;;;;;;;4.10;2.20;;;;;;;23.15;28.75;93835.88;5091552;28;20043;-46
2022/05/10 09:55:07;;;;;;;9.20;2.65;;;;;;;23.17;30.05;93838.09;5091691;28;20501;-48
2022/05/10 09:57:37;;;;;;;2.35;1.70;;;;;;;23.24;30.44;93839.88;5091764;28;20020;-47
2022/05/10 10:00:04;;;;;;;2.03;1.88;;;;;;;23.28;30.37;93838.00;5091703;28;20016;-46
2022/05/10 10:02:36;;;;;;;3.38;2.05;;;;;;;23.37;29.40;93835.66;5090883;28;20495;-46
2022/05/10 10:05:21;;;;;;;2.28;1.48;;;;;;;24.44;30.62;93836.19;5091290;28;20044;-46
2022/05/10 10:07:52;;;;;;;1.75;1.30;;;;;;;25.18;25.54;93833.38;5091235;28;20032;-46
2022/05/10 10:10:23;;;;;;;2.83;1.48;;;;;;;24.73;27.03;93836.22;5091495;28;20052;-45
2022/05/10 10:12:49;;;;;;;3.15;1.98;;;;;;;24.44;27.85;93827.72;5090181;28;20024;-46
2022/05/10 10:15:31;;;;;;;4.03;1.55;;;;;;;24.18;27.24;93824.34;5073401;28;20031;-46
2022/05/10 10:18:04;;;;;;;2.28;1.52;;;;;;;23.70;29.74;93816.22;5091068;28;20036;-46
2022/05/10 10:20:39;;;;;;;31.08;4.38;;;;;;;23.56;29.20;93821.88;5073336;28;20020;-47
2022/05/10 10:23:29;;;;;;;4.55;1.75;;;;;;;23.47;27.74;93817.19;5091009;28;20032;-46
2022/05/10 10:26:16;;;;;;;2.30;1.45;;;;;;;23.33;28.18;93822.81;5091191;28;20107;-45
2022/05/10 10:28:57;;;;;;;3.95;1.77;;;;;;;23.17;29.29;93821.91;5091223;28;20115;-45
2022/05/10 10:31:27;;;;;;;3.53;1.60;;;;;;;22.96;30.37;93824.25;5090811;28;20084;-46
2022/05/10 10:34:02;;;;;;;2.88;1.45;;;;;;;22.76;31.00;93818.25;5091210;28;20024;-47
2022/05/10 10:36:38;;;;;;;3.67;2.53;;;;;;;22.60;31.26;93811.75;5072966;28;20119;-47
2022/05/10 10:39:19;;;;;;;4.75;2.72;;;;;;;22.60;31.51;93818.13;5072971;28;20031;-47
2022/05/10 10:41:53;;;;;;;5.20;2.38;;;;;;;22.75;32.26;93816.81;5072941;28;20039;-45
2022/05/10 10:44:25;;;;;;;3.58;2.17;;;;;;;22.63;32.31;93821.78;5072620;28;20024;-46
2022/05/10 10:47:00;;;;;;;4.88;2.90;;;;;;;22.66;33.21;93823.34;5072498;28;20519;-46
2022/05/10 10:49:51;;;;;;;8.98;2.10;;;;;;;22.53;32.63;93833.19;5072392;28;20068;-46
2022/05/10 10:52:17;;;;;;;3.63;2.25;;;;;;;22.71;33.09;93824.31;5090824;28;20063;-46
2022/05/10 10:54:42;;;;;;;5.88;1.77;;;;;;;22.77;30.17;93816.94;5090781;28;20501;-46
2022/05/10 10:57:36;;;;;;;3.30;2.17;;;;;;;22.69;37.63;93822.13;5072694;28;20081;-46
2022/05/10 11:00:19;;;;;;;3.83;1.30;;;;;;;22.14;37.19;93823.91;5090772;28;20389;-49
2022/05/10 11:03:00;;;;;;;3.97;1.48;;;;;;;22.00;38.72;93828.00;5072312;28;20084;-46
2022/05/10 11:05:39;;;;;;;5.53;1.98;;;;;;;21.91;34.69;93824.00;5090095;28;20762;-46
2022/05/10 11:08:18;;;;;;;;;;;;;;;21.70;36.17;93815.72;5090912;28;20114;-49
2022/05/10 11:11:15;;;;;;;2.22;2.03;;;;;;;21.43;36.40;93826.72;5072580;28;19989;-46
2022/05/10 11:13:50;;;;;;;3.17;1.50;;;;;;;20.70;34.72;93822.25;5090622;28;20051;-46
2022/05/10 11:16:33;;;;;;;3.13;2.20;;;;;;;20.58;35.21;93821.47;5072337;28;20028;-46
2022/05/10 11:19:14;;;;;;;3.83;1.92;;;;;;;21.10;37.08;93819.16;5090564;28;20024;-47
2022/05/10 11:21:50;;;;;;;3.33;2.38;;;;;;;21.79;37.07;93814.81;5090559;28;20024;-47
2022/05/10 11:24:37;;;;;;;2.63;2.35;;;;;;;22.27;38.26;93814.06;5092473;28;20105;-46
2022/05/10 11:27:31;;;;;;;17.45;8.30;;;;;;;22.82;39.37;93810.16;5076330;28;20044;-46
2022/05/10 11:30:07;;;;;;;8.30;3.97;;;;;;;22.75;38.54;93811.19;5094597;28;20390;-46
2022/05/10 11:32:54;;;;;;;2.40;1.85;;;;;;;23.03;42.39;93804.28;5076791;28;20066;-46
2022/05/10 11:35:36;;;;;;;3.53;1.88;;;;;;;23.12;39.45;93796.97;5076167;28;20505;-46
2022/05/10 11:38:10;;;;;;;2.60;1.50;;;;;;;22.67;40.46;93801.56;5094161;28;20035;-46
2022/05/10 11:40:44;;;;;;;2.13;1.73;;;;;;;22.27;39.34;93812.00;5076417;28;20027;-46
2022/05/10 11:43:12;;;;;;;4.35;2.13;;;;;;;21.76;40.20;93811.16;5094368;28;20032;-46
2022/05/10 11:45:56;;;;;;;1.90;1.33;;;;;;;21.48;41.42;93811.56;5093815;28;20539;-47
2022/05/10 11:48:36;;;;;;;2.10;1.80;;;;;;;21.46;42.41;93814.28;5093971;28;20169;-46
2022/05/10 11:54:22;;;;;;;1.70;1.60;;;;;;;21.57;38.71;93802.28;5093994;28;20062;-47
2022/05/10 11:56:49;;;;;;;1.95;1.45;;;;;;;21.87;38.21;93796.34;5093765;28;20035;-47
2022/05/10 11:59:25;;;;;;;1.60;1.45;;;;;;;22.27;39.51;93797.94;5075668;28;20081;-46
2022/05/10 12:01:55;;;;;;;3.08;1.73;;;;;;;22.67;34.31;93776.97;5094018;28;20459;-47
2022/05/10 12:04:39;;;;;;;1.83;1.70;;;;;;;23.19;34.68;93782.59;5093453;28;20040;-46
2022/05/10 12:07:19;;;;;;;1.45;1.35;;;;;;;23.18;35.52;93786.03;5093598;28;20024;-47